Latest Coastal Weather Observations for Pirlangimpi (Garden Point)

IDD60701

Issued at 1:21 pm CST Friday 29 July 2016 (issued every 10 minutes, with the page automatically refreshed every 10 minutes)

About coastal observations | Map of coastal stations | Coastal observations for NT | Marine services | Other Formats
Station Details ID: 014142 Name: PIRLANGIMPI AIRPORT Lat: -11.40 Lon: 130.42 Height: 18.3 m
Data from the previous 72 hours. | See also: Recent months at Pirlangimpi (Garden Point)
Date/Time
CST
Temp
°C
Wind Pressure Rain since
9am
mm
Weather Cloud Vis
km
Sea
Height
m
Swell
Dir  Spd
kts
Gust
kts
hPa Trend Height
m
Period
s
Dir
29/01:00pm 31.5 ESE 8 13 1011.4 - 0.0 - - - - - - -
29/12:30pm 32.3 SE 8 15 1011.9 - 0.0 - - - - - - -
29/12:00pm 31.0 ESE 8 14 1012.5 - 0.0 - - - - - - -
29/11:30am 30.2 ESE 9 13 1013.0 - 0.0 - - - - - - -
29/11:00am 29.1 ESE 8 15 1013.5 - 0.0 - - - - - - -
29/10:30am 28.9 E 9 18 1013.6 - 0.0 - - - - - - -
29/10:00am 27.6 ESE 9 17 1013.9 - 0.0 - - - - - - -
29/09:30am 26.7 E 7 13 1014.2 - 0.0 - - - - - - -
29/09:00am 23.6 S 2 3 1014.1 - 0.0 - - - - - - -
29/08:30am 21.9 SSE 2 3 1014.0 - 0.0 - - - - - - -
29/08:00am 20.8 CALM 0 1 1013.7 - 0.0 - - - - - - -
29/07:30am 20.3 ESE 2 3 1013.4 - 0.0 - - - - - - -
29/07:00am 20.1 SSE 2 3 1013.2 - 0.0 - - - - - - -
29/06:30am 19.6 SSE 1 2 1012.9 - 0.0 - - - - - - -
29/06:00am 19.4 SSE 2 3 1012.8 - 0.0 - - - - - - -
29/05:30am 19.6 SE 2 3 1012.7 - 0.0 - - - - - - -
29/05:00am 20.1 SSE 2 3 1012.6 - 0.0 - - - - - - -
29/04:30am 19.9 SSE 2 3 1012.6 - 0.0 - - - - - - -
29/04:00am 20.2 SSE 3 4 1012.5 - 0.0 - - - - - - -
29/03:30am 20.8 S 3 5 1012.7 - 0.0 - - - - - - -
29/03:00am 19.9 SSE 2 3 1013.0 - 0.0 - - - - - - -
29/02:30am 20.1 SE 2 4 1013.2 - 0.0 - - - - - - -
29/02:00am 19.2 CALM 0 2 1013.4 - 0.0 - - - - - - -
29/01:30am 19.1 CALM 0 0 1013.6 - 0.0 - - - - - - -
29/01:00am 19.2 CALM 0 0 1013.8 - 0.0 - - - - - - -
29/12:30am 19.7 CALM 0 0 1014.0 - 0.0 - - - - - - -
29/12:00am 20.0 CALM 0 0 1014.1 - 0.0 - - - - - - -
 
Date/Time
CST
Temp
°C
Wind Pressure Rain since
9am
mm
Weather Cloud Vis
km
Sea
Height
m
Swell
Dir  Spd
kts
Gust
kts
hPa Trend Height
m
Period
s
Dir
28/11:30pm 20.8 CALM 0 0 1014.3 - 0.0 - - - - - - -
28/11:00pm 20.9 CALM 0 0 1014.4 - 0.0 - - - - - - -
28/10:30pm 21.0 CALM 0 0 1014.4 - 0.0 - - - - - - -
28/10:00pm 21.2 CALM 0 0 1014.2 - 0.0 - - - - - - -
28/09:30pm 21.7 SSE 1 2 1014.1 - 0.0 - - - - - - -
28/09:00pm 21.7 SSE 1 2 1013.8 - 0.0 - - - - - - -
28/08:30pm 22.3 CALM 0 0 1013.5 - 0.0 - - - - - - -
28/08:00pm 23.1 NE 1 2 1012.9 - 0.0 - - - - - - -
28/07:30pm 24.0 ENE 1 2 1012.7 - 0.0 - - - - - - -
28/07:00pm 26.9 ESE 2 3 1012.3 - 0.0 - - - - - - -
28/06:30pm 28.0 ESE 4 5 1012.0 - 0.0 - - - - - - -
28/06:00pm 28.9 SE 5 8 1011.8 - 0.0 - - - - - - -
28/05:30pm 29.6 E 6 9 1011.5 - 0.0 - - - - - - -
28/05:00pm 30.7 ENE 5 10 1011.1 - 0.0 - - - - - - -
28/04:30pm 31.3 E 6 11 1010.8 - 0.0 - - - - - - -
28/04:00pm 31.7 ENE 6 10 1010.7 - 0.0 - - - - - - -
28/03:30pm 32.0 E 5 9 1010.9 - 0.0 - - - - - - -
28/03:00pm 31.0 SE 8 14 1011.2 - 0.0 - - - - - - -
28/02:30pm 31.5 ESE 6 10 1011.6 - 0.0 - - - - - - -
28/02:00pm 31.3 ESE 7 12 1012.0 - 0.0 - - - - - - -
28/01:30pm 30.0 SE 7 13 1012.5 - 0.0 - - - - - - -
28/01:00pm 29.9 SE 10 17 1013.1 - 0.0 - - - - - - -
28/12:30pm 29.4 ESE 8 14 1013.5 - 0.0 - - - - - - -
28/12:00pm 28.8 ESE 7 12 1014.2 - 0.0 - - - - - - -
28/11:30am 27.9 SE 9 14 1014.8 - 0.0 - - - - - - -
28/11:00am 27.6 SE 9 17 1015.0 - 0.0 - - - - - - -
28/10:30am 27.3 SE 7 13 1015.2 - 0.0 - - - - - - -
28/10:00am 26.4 SE 7 14 1015.6 - 0.0 - - - - - - -
28/09:30am 25.0 SSE 6 8 1015.9 - 0.0 - - - - - - -
28/09:00am 23.6 SSE 5 7 1016.0 - 0.0 - - - - - - -
28/08:30am 22.6 SSE 3 5 1015.8 - 0.0 - - - - - - -
28/08:00am 21.5 SSE 2 4 1015.4 - 0.0 - - - - - - -
28/07:30am 19.7 ESE 2 3 1015.0 - 0.0 - - - - - - -
28/07:00am 19.2 ESE 1 1 1014.7 - 0.0 - - - - - - -
28/06:30am 20.1 E 2 3 1014.2 - 0.0 - - - - - - -
28/06:00am 20.1 SE 1 2 1014.0 - 0.0 - - - - - - -
28/05:30am 19.9 SSE 2 2 1013.9 - 0.0 - - - - - - -
28/05:00am 20.1 SSE 2 3 1013.8 - 0.0 - - - - - - -
28/04:30am 22.1 E 3 4 1013.5 - 0.0 - - - - - - -
28/04:00am 20.1 E 3 4 1013.6 - 0.0 - - - - - - -
28/03:30am 19.8 CALM 0 0 1013.8 - 0.0 - - - - - - -
28/03:00am 20.3 SE 1 2 1013.9 - 0.0 - - - - - - -
28/02:30am 21.1 SE 1 2 1013.9 - 0.0 - - - - - - -
28/02:00am 21.5 SE 2 3 1014.1 - 0.0 - - - - - - -
28/01:30am 22.0 ESE 2 3 1014.2 - 0.0 - - - - - - -
28/01:00am 21.9 SSE 2 3 1014.2 - 0.0 - - - - - - -
28/12:30am 22.1 SSE 3 5 1014.1 - 0.0 - - - - - - -
28/12:00am 23.2 NE 3 4 1014.0 - 0.0 - - - - - - -
 
Date/Time
CST
Temp
°C
Wind Pressure Rain since
9am
mm
Weather Cloud Vis
km
Sea
Height
m
Swell
Dir  Spd
kts
Gust
kts
hPa Trend Height
m
Period
s
Dir
27/11:30pm 23.4 NE 3 5 1013.8 - 0.0 - - - - - - -
27/11:00pm 23.4 NE 3 5 1013.8 - 0.0 - - - - - - -
27/10:30pm 23.6 NE 3 5 1013.8 - 0.0 - - - - - - -
27/10:00pm 23.5 NE 4 6 1013.7 - 0.0 - - - - - - -
27/09:30pm 23.4 NE 3 4 1013.6 - 0.0 - - - - - - -
27/09:00pm 23.7 NE 3 5 1013.4 - 0.0 - - - - - - -
27/08:30pm 22.9 NE 3 5 1013.0 - 0.0 - - - - - - -
27/08:00pm 25.0 ENE 4 5 1012.5 - 0.0 - - - - - - -
27/07:30pm 23.8 ENE 3 4 1012.4 - 0.0 - - - - - - -
27/07:00pm 25.9 E 2 3 1012.3 - 0.0 - - - - - - -
27/06:30pm 28.2 E 4 6 1012.0 - 0.0 - - - - - - -
27/06:00pm 29.2 E 7 11 1011.7 - 0.0 - - - - - - -
27/05:30pm 30.1 E 9 15 1011.4 - 0.0 - - - - - - -
27/05:00pm 30.9 E 8 16 1011.2 - 0.0 - - - - - - -
27/04:30pm 31.2 E 10 15 1011.0 - 0.0 - - - - - - -
27/04:00pm 31.5 E 9 15 1011.0 - 0.0 - - - - - - -
27/03:30pm 31.4 E 9 17 1011.0 - 0.0 - - - - - - -
27/03:00pm 31.4 ESE 10 16 1011.1 - 0.0 - - - - - - -
27/02:30pm 31.9 E 9 15 1011.4 - 0.0 - - - - - - -
27/02:00pm 31.1 ESE 11 20 1011.8 - 0.0 - - - - - - -
27/01:30pm 31.1 ESE 10 19 1012.1 - 0.0 - - - - - - -
27/01:00pm 30.5 E 11 19 1012.4 - 0.0 - - - - - - -
27/12:30pm 30.3 SE 11 19 1012.9 - 0.0 - - - - - - -
27/12:00pm 30.0 SE 10 17 1013.4 - 0.0 - - - - - - -
27/11:30am 29.9 ESE 10 15 1013.7 - 0.0 - - - - - - -
27/11:00am 29.2 SE 9 15 1014.1 - 0.0 - - - - - - -
27/10:30am 28.6 E 8 14 1014.4 - 0.0 - - - - - - -
27/10:00am 27.3 ESE 8 13 1014.5 - 0.0 - - - - - - -
27/09:30am 26.8 ESE 6 11 1014.6 - 0.0 - - - - - - -
27/09:00am 24.8 SSE 3 5 1014.5 - 0.0 - - - - - - -
27/08:30am 23.6 SE 3 4 1014.2 - 0.0 - - - - - - -
27/08:00am 22.2 ESE 3 3 1014.0 - 0.0 - - - - - - -
27/07:30am 20.7 E 2 4 1013.7 - 0.0 - - - - - - -
27/07:00am 19.8 CALM 0 0 1013.5 - 0.0 - - - - - - -
27/06:30am 20.2 CALM 0 0 1013.2 - 0.0 - - - - - - -
27/06:00am 20.3 CALM 0 0 1013.1 - 0.0 - - - - - - -
27/05:30am 20.6 CALM 0 0 1012.9 - 0.0 - - - - - - -
27/05:00am 21.3 SE 1 2 1012.7 - 0.0 - - - - - - -
27/04:30am 21.8 ESE 2 2 1012.6 - 0.0 - - - - - - -
27/04:00am 22.0 SE 1 2 1012.5 - 0.0 - - - - - - -
27/03:30am 22.3 SE 2 3 1012.5 - 0.0 - - - - - - -
27/03:00am 22.3 SE 2 4 1012.7 - 0.0 - - - - - - -
27/02:30am 21.9 SE 2 3 1012.7 - 0.0 - - - - - - -
27/02:00am 21.9 SSE 3 4 1012.8 - 0.0 - - - - - - -
27/01:30am 21.4 CALM 0 0 1012.8 - 0.0 - - - - - - -
27/01:00am 22.2 SE 2 2 1013.0 - 0.0 - - - - - - -
27/12:30am 21.5 CALM 0 0 1013.1 - 0.0 - - - - - - -
27/12:00am 21.9 SE 1 2 1013.1 - 0.0 - - - - - - -
 
Date/Time
CST
Temp
°C
Wind Pressure Rain since
9am
mm
Weather Cloud Vis
km
Sea
Height
m
Swell
Dir  Spd
kts
Gust
kts
hPa Trend Height
m
Period
s
Dir
26/11:30pm 22.2 SSE 2 3 1013.1 - 0.0 - - - - - - -
26/11:00pm 22.1 CALM 0 0 1013.0 - 0.0 - - - - - - -
26/10:30pm 22.4 CALM 0 0 1012.9 - 0.0 - - - - - - -
26/10:00pm 22.4 CALM 0 0 1012.8 - 0.0 - - - - - - -
26/09:30pm 22.9 CALM 0 0 1012.5 - 0.0 - - - - - - -
26/09:00pm 23.6 CALM 0 0 1012.3 - 0.0 - - - - - - -
26/08:30pm 24.3 CALM 0 2 1012.1 - 0.0 - - - - - - -
26/08:00pm 24.7 ENE 2 3 1011.8 - 0.0 - - - - - - -
26/07:30pm 25.6 ENE 3 5 1011.5 - 0.0 - - - - - - -
26/07:00pm 26.4 NE 3 6 1011.2 - 0.0 - - - - - - -
26/06:30pm 27.6 ENE 5 9 1010.8 - 0.0 - - - - - - -
26/06:00pm 30.1 ENE 6 12 1010.3 - 0.0 - - - - - - -
26/05:30pm 31.0 E 7 12 1010.0 - 0.0 - - - - - - -
26/05:00pm 32.1 E 8 13 1009.9 - 0.0 - - - - - - -
26/04:30pm 32.5 E 7 11 1009.8 - 0.0 - - - - - - -
26/04:00pm 32.0 E 8 13 1009.9 - 0.0 - - - - - - -
26/03:30pm 32.4 E 9 13 1009.9 - 0.0 - - - - - - -
26/03:00pm 32.1 ESE 9 16 1010.2 - 0.0 - - - - - - -
26/02:30pm 32.4 E 9 15 1010.3 - 0.0 - - - - - - -
26/02:00pm 32.0 ESE 8 16 1010.7 - 0.0 - - - - - - -
26/01:30pm 31.8 E 10 17 1011.1 - 0.0 - - - - - - -

Other Formats:

Comma delimited format used in spreadsheet applications
http://www.bom.gov.au/fwo/IDD60701/IDD60701.94119.axf

JavaScript Object Notation format (JSON) in row-major order
http://www.bom.gov.au/fwo/IDD60701/IDD60701.94119.json